sensor_id;sensor_type;location;lat;lon;timestamp;P1;durP1;ratioP1;P2;durP2;ratioP2
69419;SDS011;56612;52.030;113.524;2023-05-07T00:01:11;8.70;;;3.27;;
69419;SDS011;56612;52.030;113.524;2023-05-07T00:04:14;7.93;;;3.42;;
69419;SDS011;56612;52.030;113.524;2023-05-07T00:07:17;6.22;;;2.97;;
69419;SDS011;56612;52.030;113.524;2023-05-07T00:10:21;9.27;;;3.58;;
69419;SDS011;56612;52.030;113.524;2023-05-07T00:13:25;7.53;;;3.05;;
69419;SDS011;56612;52.030;113.524;2023-05-07T00:16:30;8.97;;;3.77;;
69419;SDS011;56612;52.030;113.524;2023-05-07T00:19:33;8.07;;;3.53;;
69419;SDS011;56612;52.030;113.524;2023-05-07T00:22:36;8.00;;;3.67;;
69419;SDS011;56612;52.030;113.524;2023-05-07T00:25:40;6.88;;;3.50;;
69419;SDS011;56612;52.030;113.524;2023-05-07T00:28:43;9.43;;;3.50;;
69419;SDS011;56612;52.030;113.524;2023-05-07T00:31:48;9.23;;;3.53;;
69419;SDS011;56612;52.030;113.524;2023-05-07T00:34:53;7.30;;;3.50;;
69419;SDS011;56612;52.030;113.524;2023-05-07T00:37:56;11.93;;;3.58;;
69419;SDS011;56612;52.030;113.524;2023-05-07T00:40:59;10.30;;;4.40;;
69419;SDS011;56612;52.030;113.524;2023-05-07T00:44:02;9.40;;;4.43;;
69419;SDS011;56612;52.030;113.524;2023-05-07T00:47:07;7.97;;;4.40;;
69419;SDS011;56612;52.030;113.524;2023-05-07T00:50:11;9.63;;;4.40;;
69419;SDS011;56612;52.030;113.524;2023-05-07T00:53:15;9.55;;;4.97;;
69419;SDS011;56612;52.030;113.524;2023-05-07T00:56:20;9.63;;;4.40;;
69419;SDS011;56612;52.030;113.524;2023-05-07T00:59:24;9.10;;;4.38;;
69419;SDS011;56612;52.030;113.524;2023-05-07T01:02:28;8.30;;;4.73;;
69419;SDS011;56612;52.030;113.524;2023-05-07T01:05:31;11.90;;;4.78;;
69419;SDS011;56612;52.030;113.524;2023-05-07T01:08:36;11.02;;;4.75;;
69419;SDS011;56612;52.030;113.524;2023-05-07T01:11:42;8.98;;;4.90;;
69419;SDS011;56612;52.030;113.524;2023-05-07T01:14:47;10.07;;;4.63;;
69419;SDS011;56612;52.030;113.524;2023-05-07T01:17:52;9.73;;;4.40;;
69419;SDS011;56612;52.030;113.524;2023-05-07T01:21:03;9.00;;;4.75;;
69419;SDS011;56612;52.030;113.524;2023-05-07T01:24:08;13.45;;;5.00;;
69419;SDS011;56612;52.030;113.524;2023-05-07T01:27:12;11.77;;;5.20;;
69419;SDS011;56612;52.030;113.524;2023-05-07T01:30:16;11.10;;;5.35;;
69419;SDS011;56612;52.030;113.524;2023-05-07T01:33:21;10.47;;;6.03;;
69419;SDS011;56612;52.030;113.524;2023-05-07T01:36:25;11.40;;;6.50;;
69419;SDS011;56612;52.030;113.524;2023-05-07T01:39:31;16.10;;;5.28;;
69419;SDS011;56612;52.030;113.524;2023-05-07T01:42:35;12.95;;;7.05;;
69419;SDS011;56612;52.030;113.524;2023-05-07T01:45:39;14.35;;;7.18;;
69419;SDS011;56612;52.030;113.524;2023-05-07T01:48:43;15.93;;;7.50;;
69419;SDS011;56612;52.030;113.524;2023-05-07T01:51:49;15.63;;;7.22;;
69419;SDS011;56612;52.030;113.524;2023-05-07T01:54:53;15.48;;;7.18;;
69419;SDS011;56612;52.030;113.524;2023-05-07T01:57:57;21.00;;;7.75;;
69419;SDS011;56612;52.030;113.524;2023-05-07T02:01:00;18.60;;;7.60;;
69419;SDS011;56612;52.030;113.524;2023-05-07T02:04:03;10.80;;;7.20;;
69419;SDS011;56612;52.030;113.524;2023-05-07T02:07:07;14.85;;;7.35;;
69419;SDS011;56612;52.030;113.524;2023-05-07T02:10:11;12.95;;;7.20;;
69419;SDS011;56612;52.030;113.524;2023-05-07T02:13:15;18.15;;;6.90;;
69419;SDS011;56612;52.030;113.524;2023-05-07T02:16:19;12.57;;;6.97;;
69419;SDS011;56612;52.030;113.524;2023-05-07T02:19:25;13.00;;;6.97;;
69419;SDS011;56612;52.030;113.524;2023-05-07T02:22:28;11.52;;;7.00;;
69419;SDS011;56612;52.030;113.524;2023-05-07T02:25:31;12.38;;;7.05;;
69419;SDS011;56612;52.030;113.524;2023-05-07T02:28:35;12.93;;;7.30;;
69419;SDS011;56612;52.030;113.524;2023-05-07T02:31:39;15.98;;;7.25;;
69419;SDS011;56612;52.030;113.524;2023-05-07T02:34:44;23.00;;;7.97;;
69419;SDS011;56612;52.030;113.524;2023-05-07T02:37:47;9.45;;;6.53;;
69419;SDS011;56612;52.030;113.524;2023-05-07T02:40:50;12.93;;;7.07;;
69419;SDS011;56612;52.030;113.524;2023-05-07T02:43:53;15.63;;;7.25;;
69419;SDS011;56612;52.030;113.524;2023-05-07T02:46:57;13.05;;;7.28;;
69419;SDS011;56612;52.030;113.524;2023-05-07T02:50:00;11.20;;;7.07;;
69419;SDS011;56612;52.030;113.524;2023-05-07T02:53:04;11.80;;;6.93;;
69419;SDS011;56612;52.030;113.524;2023-05-07T02:56:07;12.05;;;6.50;;
69419;SDS011;56612;52.030;113.524;2023-05-07T02:59:10;15.88;;;7.78;;
69419;SDS011;56612;52.030;113.524;2023-05-07T03:02:15;13.18;;;6.95;;
69419;SDS011;56612;52.030;113.524;2023-05-07T03:05:19;31.30;;;6.40;;
69419;SDS011;56612;52.030;113.524;2023-05-07T03:08:22;17.77;;;6.50;;
69419;SDS011;56612;52.030;113.524;2023-05-07T03:11:27;11.43;;;5.65;;
69419;SDS011;56612;52.030;113.524;2023-05-07T03:14:30;10.60;;;5.68;;
69419;SDS011;56612;52.030;113.524;2023-05-07T03:17:33;18.95;;;6.97;;
69419;SDS011;56612;52.030;113.524;2023-05-07T03:20:37;16.47;;;6.50;;
69419;SDS011;56612;52.030;113.524;2023-05-07T03:23:41;17.42;;;7.43;;
69419;SDS011;56612;52.030;113.524;2023-05-07T03:26:44;18.08;;;7.32;;
69419;SDS011;56612;52.030;113.524;2023-05-07T03:29:48;16.05;;;7.78;;
69419;SDS011;56612;52.030;113.524;2023-05-07T03:32:51;18.60;;;6.88;;
69419;SDS011;56612;52.030;113.524;2023-05-07T03:35:54;13.73;;;6.97;;
69419;SDS011;56612;52.030;113.524;2023-05-07T03:39:00;19.23;;;7.53;;
69419;SDS011;56612;52.030;113.524;2023-05-07T03:42:10;21.05;;;8.05;;
69419;SDS011;56612;52.030;113.524;2023-05-07T03:45:15;12.20;;;6.72;;
69419;SDS011;56612;52.030;113.524;2023-05-07T03:48:24;18.38;;;6.60;;
69419;SDS011;56612;52.030;113.524;2023-05-07T03:51:31;14.17;;;6.60;;
69419;SDS011;56612;52.030;113.524;2023-05-07T03:54:36;25.67;;;7.43;;
69419;SDS011;56612;52.030;113.524;2023-05-07T03:57:39;14.93;;;6.70;;
69419;SDS011;56612;52.030;113.524;2023-05-07T04:00:44;13.25;;;6.05;;
69419;SDS011;56612;52.030;113.524;2023-05-07T04:03:56;21.63;;;6.90;;
69419;SDS011;56612;52.030;113.524;2023-05-07T04:07:01;19.07;;;6.80;;
69419;SDS011;56612;52.030;113.524;2023-05-07T04:10:11;23.80;;;6.88;;
69419;SDS011;56612;52.030;113.524;2023-05-07T04:13:19;11.38;;;5.80;;
69419;SDS011;56612;52.030;113.524;2023-05-07T04:16:22;24.73;;;6.88;;
69419;SDS011;56612;52.030;113.524;2023-05-07T04:19:26;17.98;;;6.47;;
69419;SDS011;56612;52.030;113.524;2023-05-07T04:22:30;21.43;;;7.37;;
69419;SDS011;56612;52.030;113.524;2023-05-07T04:25:34;21.95;;;7.70;;
69419;SDS011;56612;52.030;113.524;2023-05-07T04:29:01;16.10;;;6.43;;
69419;SDS011;56612;52.030;113.524;2023-05-07T04:32:08;12.82;;;6.10;;
69419;SDS011;56612;52.030;113.524;2023-05-07T04:35:14;10.65;;;5.90;;
69419;SDS011;56612;52.030;113.524;2023-05-07T04:38:17;9.23;;;5.60;;
69419;SDS011;56612;52.030;113.524;2023-05-07T04:41:23;34.45;;;6.18;;
69419;SDS011;56612;52.030;113.524;2023-05-07T04:44:26;17.95;;;5.72;;
69419;SDS011;56612;52.030;113.524;2023-05-07T04:47:29;15.57;;;5.05;;
69419;SDS011;56612;52.030;113.524;2023-05-07T04:50:35;10.45;;;5.05;;
69419;SDS011;56612;52.030;113.524;2023-05-07T04:53:39;9.90;;;5.33;;
69419;SDS011;56612;52.030;113.524;2023-05-07T04:56:44;10.82;;;5.20;;
69419;SDS011;56612;52.030;113.524;2023-05-07T04:59:47;15.68;;;6.00;;
69419;SDS011;56612;52.030;113.524;2023-05-07T05:02:50;18.05;;;6.18;;
69419;SDS011;56612;52.030;113.524;2023-05-07T05:05:55;23.75;;;6.05;;
69419;SDS011;56612;52.030;113.524;2023-05-07T05:09:06;16.43;;;5.47;;
69419;SDS011;56612;52.030;113.524;2023-05-07T05:12:10;27.17;;;7.03;;
69419;SDS011;56612;52.030;113.524;2023-05-07T05:15:13;24.50;;;4.80;;
69419;SDS011;56612;52.030;113.524;2023-05-07T05:18:18;14.88;;;5.88;;
69419;SDS011;56612;52.030;113.524;2023-05-07T05:21:21;17.50;;;5.18;;
69419;SDS011;56612;52.030;113.524;2023-05-07T05:24:29;30.43;;;4.77;;
69419;SDS011;56612;52.030;113.524;2023-05-07T05:27:35;15.00;;;4.28;;
69419;SDS011;56612;52.030;113.524;2023-05-07T05:30:39;19.52;;;5.00;;
69419;SDS011;56612;52.030;113.524;2023-05-07T05:33:43;21.98;;;4.10;;
69419;SDS011;56612;52.030;113.524;2023-05-07T05:36:47;12.98;;;3.83;;
69419;SDS011;56612;52.030;113.524;2023-05-07T05:39:53;12.10;;;4.20;;
69419;SDS011;56612;52.030;113.524;2023-05-07T05:42:59;34.85;;;5.03;;
69419;SDS011;56612;52.030;113.524;2023-05-07T05:46:05;27.48;;;4.45;;
69419;SDS011;56612;52.030;113.524;2023-05-07T05:49:08;25.42;;;5.15;;
69419;SDS011;56612;52.030;113.524;2023-05-07T05:52:13;79.53;;;7.80;;
69419;SDS011;56612;52.030;113.524;2023-05-07T05:55:17;55.10;;;6.27;;
69419;SDS011;56612;52.030;113.524;2023-05-07T05:58:21;41.33;;;5.93;;
69419;SDS011;56612;52.030;113.524;2023-05-07T06:01:30;27.48;;;5.78;;
69419;SDS011;56612;52.030;113.524;2023-05-07T06:04:37;22.88;;;5.30;;
69419;SDS011;56612;52.030;113.524;2023-05-07T06:07:40;24.85;;;5.63;;
69419;SDS011;56612;52.030;113.524;2023-05-07T06:10:45;12.77;;;4.40;;
69419;SDS011;56612;52.030;113.524;2023-05-07T06:13:50;26.13;;;5.05;;
69419;SDS011;56612;52.030;113.524;2023-05-07T06:16:54;19.55;;;4.93;;
69419;SDS011;56612;52.030;113.524;2023-05-07T06:19:58;10.63;;;4.38;;
69419;SDS011;56612;52.030;113.524;2023-05-07T06:23:02;26.35;;;5.35;;
69419;SDS011;56612;52.030;113.524;2023-05-07T06:26:07;43.00;;;6.37;;
69419;SDS011;56612;52.030;113.524;2023-05-07T06:29:16;14.23;;;4.65;;
69419;SDS011;56612;52.030;113.524;2023-05-07T06:32:20;24.58;;;4.80;;
69419;SDS011;56612;52.030;113.524;2023-05-07T06:35:25;13.98;;;5.28;;
69419;SDS011;56612;52.030;113.524;2023-05-07T06:38:29;27.48;;;5.38;;
69419;SDS011;56612;52.030;113.524;2023-05-07T06:41:33;23.57;;;4.40;;
69419;SDS011;56612;52.030;113.524;2023-05-07T06:44:43;18.08;;;4.70;;
69419;SDS011;56612;52.030;113.524;2023-05-07T06:47:50;16.75;;;4.78;;
69419;SDS011;56612;52.030;113.524;2023-05-07T06:50:53;26.25;;;4.82;;
69419;SDS011;56612;52.030;113.524;2023-05-07T06:53:59;21.50;;;5.00;;
69419;SDS011;56612;52.030;113.524;2023-05-07T06:57:04;17.83;;;4.97;;
69419;SDS011;56612;52.030;113.524;2023-05-07T07:00:08;30.50;;;5.38;;
69419;SDS011;56612;52.030;113.524;2023-05-07T07:03:24;31.58;;;5.45;;
69419;SDS011;56612;52.030;113.524;2023-05-07T07:06:30;14.70;;;4.20;;
69419;SDS011;56612;52.030;113.524;2023-05-07T07:09:38;19.38;;;5.03;;
69419;SDS011;56612;52.030;113.524;2023-05-07T07:12:43;23.77;;;5.37;;
69419;SDS011;56612;52.030;113.524;2023-05-07T07:15:47;20.17;;;4.68;;
69419;SDS011;56612;52.030;113.524;2023-05-07T07:18:52;21.25;;;3.97;;
69419;SDS011;56612;52.030;113.524;2023-05-07T07:21:55;22.67;;;3.75;;
69419;SDS011;56612;52.030;113.524;2023-05-07T07:24:59;24.88;;;4.25;;
69419;SDS011;56612;52.030;113.524;2023-05-07T07:28:05;11.60;;;3.60;;
69419;SDS011;56612;52.030;113.524;2023-05-07T07:31:11;20.08;;;3.78;;
69419;SDS011;56612;52.030;113.524;2023-05-07T07:34:16;37.17;;;4.90;;
69419;SDS011;56612;52.030;113.524;2023-05-07T07:37:20;27.85;;;5.68;;
69419;SDS011;56612;52.030;113.524;2023-05-07T07:40:24;28.00;;;4.43;;
69419;SDS011;56612;52.030;113.524;2023-05-07T07:43:29;18.40;;;4.00;;
69419;SDS011;56612;52.030;113.524;2023-05-07T07:46:33;20.90;;;3.47;;
69419;SDS011;56612;52.030;113.524;2023-05-07T07:49:37;18.45;;;3.60;;
69419;SDS011;56612;52.030;113.524;2023-05-07T07:52:43;30.90;;;4.07;;
69419;SDS011;56612;52.030;113.524;2023-05-07T07:55:50;38.53;;;5.10;;
69419;SDS011;56612;52.030;113.524;2023-05-07T07:59:02;38.27;;;4.80;;
69419;SDS011;56612;52.030;113.524;2023-05-07T08:02:07;15.35;;;3.55;;
69419;SDS011;56612;52.030;113.524;2023-05-07T08:05:11;9.03;;;3.30;;
69419;SDS011;56612;52.030;113.524;2023-05-07T08:08:17;43.28;;;4.38;;
69419;SDS011;56612;52.030;113.524;2023-05-07T08:11:20;36.90;;;4.30;;
69419;SDS011;56612;52.030;113.524;2023-05-07T08:14:25;24.50;;;3.67;;
69419;SDS011;56612;52.030;113.524;2023-05-07T08:17:31;16.67;;;3.50;;
69419;SDS011;56612;52.030;113.524;2023-05-07T08:20:36;16.90;;;4.03;;
69419;SDS011;56612;52.030;113.524;2023-05-07T08:23:46;21.83;;;3.33;;
69419;SDS011;56612;52.030;113.524;2023-05-07T08:26:51;21.58;;;3.88;;
69419;SDS011;56612;52.030;113.524;2023-05-07T08:29:54;46.17;;;5.03;;
69419;SDS011;56612;52.030;113.524;2023-05-07T08:32:59;18.42;;;3.40;;
69419;SDS011;56612;52.030;113.524;2023-05-07T08:36:03;22.23;;;2.67;;
69419;SDS011;56612;52.030;113.524;2023-05-07T08:39:08;13.35;;;3.00;;
69419;SDS011;56612;52.030;113.524;2023-05-07T08:42:12;9.38;;;2.58;;
69419;SDS011;56612;52.030;113.524;2023-05-07T08:45:19;20.63;;;3.77;;
69419;SDS011;56612;52.030;113.524;2023-05-07T08:48:25;16.70;;;3.78;;
69419;SDS011;56612;52.030;113.524;2023-05-07T08:51:46;9.70;;;3.60;;
69419;SDS011;56612;52.030;113.524;2023-05-07T08:54:50;11.23;;;2.72;;
69419;SDS011;56612;52.030;113.524;2023-05-07T08:57:54;10.43;;;3.10;;
69419;SDS011;56612;52.030;113.524;2023-05-07T09:00:57;22.53;;;2.60;;
69419;SDS011;56612;52.030;113.524;2023-05-07T09:04:03;16.88;;;2.88;;
69419;SDS011;56612;52.030;113.524;2023-05-07T09:07:09;19.35;;;3.00;;
69419;SDS011;56612;52.030;113.524;2023-05-07T09:10:17;22.17;;;3.22;;
69419;SDS011;56612;52.030;113.524;2023-05-07T09:13:21;59.75;;;6.15;;
69419;SDS011;56612;52.030;113.524;2023-05-07T09:16:25;55.60;;;4.97;;
69419;SDS011;56612;52.030;113.524;2023-05-07T09:19:31;25.65;;;3.83;;
69419;SDS011;56612;52.030;113.524;2023-05-07T09:22:38;57.90;;;9.38;;
69419;SDS011;56612;52.030;113.524;2023-05-07T09:25:45;117.97;;;14.93;;
69419;SDS011;56612;52.030;113.524;2023-05-07T09:28:56;35.65;;;7.63;;
69419;SDS011;56612;52.030;113.524;2023-05-07T09:32:00;28.63;;;4.53;;
69419;SDS011;56612;52.030;113.524;2023-05-07T09:35:16;24.80;;;2.72;;
69419;SDS011;56612;52.030;113.524;2023-05-07T09:38:25;59.35;;;7.20;;
69419;SDS011;56612;52.030;113.524;2023-05-07T09:41:33;46.78;;;9.95;;
69419;SDS011;56612;52.030;113.524;2023-05-07T09:45:02;23.35;;;5.35;;
69419;SDS011;56612;52.030;113.524;2023-05-07T09:48:11;36.37;;;7.83;;
69419;SDS011;56612;52.030;113.524;2023-05-07T09:51:21;23.98;;;5.30;;
69419;SDS011;56612;52.030;113.524;2023-05-07T09:54:26;17.77;;;5.22;;
69419;SDS011;56612;52.030;113.524;2023-05-07T09:57:34;42.47;;;4.85;;
69419;SDS011;56612;52.030;113.524;2023-05-07T10:00:42;96.10;;;7.00;;
69419;SDS011;56612;52.030;113.524;2023-05-07T10:03:49;26.33;;;3.10;;
69419;SDS011;56612;52.030;113.524;2023-05-07T10:06:54;28.88;;;4.38;;
69419;SDS011;56612;52.030;113.524;2023-05-07T10:09:59;14.30;;;2.65;;
69419;SDS011;56612;52.030;113.524;2023-05-07T10:13:09;10.95;;;2.67;;
69419;SDS011;56612;52.030;113.524;2023-05-07T10:16:19;11.15;;;2.08;;
69419;SDS011;56612;52.030;113.524;2023-05-07T10:19:24;10.93;;;2.13;;
69419;SDS011;56612;52.030;113.524;2023-05-07T10:22:41;12.27;;;2.05;;
69419;SDS011;56612;52.030;113.524;2023-05-07T10:25:50;10.75;;;2.10;;
69419;SDS011;56612;52.030;113.524;2023-05-07T10:29:04;11.88;;;2.00;;
69419;SDS011;56612;52.030;113.524;2023-05-07T10:35:43;8.97;;;1.57;;
69419;SDS011;56612;52.030;113.524;2023-05-07T10:38:49;9.75;;;1.67;;
69419;SDS011;56612;52.030;113.524;2023-05-07T10:41:53;7.28;;;1.45;;
69419;SDS011;56612;52.030;113.524;2023-05-07T10:44:57;6.20;;;1.33;;
69419;SDS011;56612;52.030;113.524;2023-05-07T10:48:16;11.80;;;1.40;;
69419;SDS011;56612;52.030;113.524;2023-05-07T10:51:35;12.53;;;2.30;;
69419;SDS011;56612;52.030;113.524;2023-05-07T10:58:27;20.50;;;2.45;;
69419;SDS011;56612;52.030;113.524;2023-05-07T11:01:52;4.82;;;1.30;;
69419;SDS011;56612;52.030;113.524;2023-05-07T11:05:23;8.35;;;1.50;;
69419;SDS011;56612;52.030;113.524;2023-05-07T11:12:02;8.90;;;1.70;;
69419;SDS011;56612;52.030;113.524;2023-05-07T11:15:33;11.27;;;2.10;;
69419;SDS011;56612;52.030;113.524;2023-05-07T11:18:48;14.50;;;1.90;;
69419;SDS011;56612;52.030;113.524;2023-05-07T11:22:01;8.68;;;1.50;;
69419;SDS011;56612;52.030;113.524;2023-05-07T11:25:19;6.70;;;1.50;;
69419;SDS011;56612;52.030;113.524;2023-05-07T11:28:30;7.25;;;1.42;;
69419;SDS011;56612;52.030;113.524;2023-05-07T11:31:39;13.63;;;2.72;;
69419;SDS011;56612;52.030;113.524;2023-05-07T11:34:44;8.60;;;1.60;;
69419;SDS011;56612;52.030;113.524;2023-05-07T11:37:48;39.65;;;2.92;;
69419;SDS011;56612;52.030;113.524;2023-05-07T11:40:58;12.87;;;2.17;;
69419;SDS011;56612;52.030;113.524;2023-05-07T11:44:07;4.93;;;1.20;;
69419;SDS011;56612;52.030;113.524;2023-05-07T11:47:11;4.68;;;1.20;;
69419;SDS011;56612;52.030;113.524;2023-05-07T11:50:20;10.32;;;1.42;;
69419;SDS011;56612;52.030;113.524;2023-05-07T11:53:25;6.97;;;1.40;;
69419;SDS011;56612;52.030;113.524;2023-05-07T11:56:29;6.47;;;1.47;;
69419;SDS011;56612;52.030;113.524;2023-05-07T11:59:41;4.53;;;1.38;;
69419;SDS011;56612;52.030;113.524;2023-05-07T12:02:47;7.78;;;1.80;;
69419;SDS011;56612;52.030;113.524;2023-05-07T12:05:51;7.05;;;1.80;;
69419;SDS011;56612;52.030;113.524;2023-05-07T12:08:55;5.38;;;1.58;;
69419;SDS011;56612;52.030;113.524;2023-05-07T12:12:03;9.83;;;2.07;;
69419;SDS011;56612;52.030;113.524;2023-05-07T12:15:07;11.25;;;1.77;;
69419;SDS011;56612;52.030;113.524;2023-05-07T12:18:12;7.07;;;1.80;;
69419;SDS011;56612;52.030;113.524;2023-05-07T12:21:17;7.63;;;2.35;;
69419;SDS011;56612;52.030;113.524;2023-05-07T12:24:21;6.65;;;1.92;;
69419;SDS011;56612;52.030;113.524;2023-05-07T12:27:25;5.37;;;1.73;;
69419;SDS011;56612;52.030;113.524;2023-05-07T12:30:29;6.78;;;1.80;;
69419;SDS011;56612;52.030;113.524;2023-05-07T12:33:33;4.93;;;1.50;;
69419;SDS011;56612;52.030;113.524;2023-05-07T12:36:38;9.48;;;2.20;;
69419;SDS011;56612;52.030;113.524;2023-05-07T12:39:49;8.07;;;2.50;;
69419;SDS011;56612;52.030;113.524;2023-05-07T12:43:07;6.00;;;2.07;;
69419;SDS011;56612;52.030;113.524;2023-05-07T12:46:11;7.07;;;1.88;;
69419;SDS011;56612;52.030;113.524;2023-05-07T12:49:17;10.07;;;2.00;;
69419;SDS011;56612;52.030;113.524;2023-05-07T12:52:20;6.00;;;1.75;;
69419;SDS011;56612;52.030;113.524;2023-05-07T12:55:24;5.80;;;2.22;;
69419;SDS011;56612;52.030;113.524;2023-05-07T12:58:34;4.40;;;1.80;;
69419;SDS011;56612;52.030;113.524;2023-05-07T13:01:39;8.75;;;1.77;;
69419;SDS011;56612;52.030;113.524;2023-05-07T13:04:43;5.82;;;1.92;;
69419;SDS011;56612;52.030;113.524;2023-05-07T13:07:53;7.20;;;2.70;;
69419;SDS011;56612;52.030;113.524;2023-05-07T13:11:01;7.07;;;2.30;;
69419;SDS011;56612;52.030;113.524;2023-05-07T13:14:08;6.30;;;2.00;;
69419;SDS011;56612;52.030;113.524;2023-05-07T13:17:12;6.65;;;1.73;;
69419;SDS011;56612;52.030;113.524;2023-05-07T13:20:16;7.07;;;2.30;;
69419;SDS011;56612;52.030;113.524;2023-05-07T13:23:20;6.88;;;1.50;;
69419;SDS011;56612;52.030;113.524;2023-05-07T13:26:24;7.47;;;1.42;;
69419;SDS011;56612;52.030;113.524;2023-05-07T13:29:29;6.07;;;1.60;;
69419;SDS011;56612;52.030;113.524;2023-05-07T13:32:33;4.72;;;1.05;;
69419;SDS011;56612;52.030;113.524;2023-05-07T13:35:38;6.75;;;1.40;;
69419;SDS011;56612;52.030;113.524;2023-05-07T13:38:42;4.93;;;1.17;;
69419;SDS011;56612;52.030;113.524;2023-05-07T13:41:46;5.10;;;1.58;;
69419;SDS011;56612;52.030;113.524;2023-05-07T13:44:50;5.00;;;1.43;;
69419;SDS011;56612;52.030;113.524;2023-05-07T13:47:54;4.80;;;1.83;;
69419;SDS011;56612;52.030;113.524;2023-05-07T13:50:58;6.68;;;1.42;;
69419;SDS011;56612;52.030;113.524;2023-05-07T13:54:02;4.63;;;1.63;;
69419;SDS011;56612;52.030;113.524;2023-05-07T13:57:07;7.00;;;1.67;;
69419;SDS011;56612;52.030;113.524;2023-05-07T14:00:10;5.77;;;1.50;;
69419;SDS011;56612;52.030;113.524;2023-05-07T14:03:15;6.03;;;1.52;;
69419;SDS011;56612;52.030;113.524;2023-05-07T14:06:20;4.80;;;1.50;;
69419;SDS011;56612;52.030;113.524;2023-05-07T14:09:25;6.43;;;1.40;;
69419;SDS011;56612;52.030;113.524;2023-05-07T14:12:29;5.53;;;1.42;;
69419;SDS011;56612;52.030;113.524;2023-05-07T14:15:33;7.07;;;2.80;;
69419;SDS011;56612;52.030;113.524;2023-05-07T14:18:37;12.80;;;2.40;;
69419;SDS011;56612;52.030;113.524;2023-05-07T14:21:42;5.05;;;1.48;;
69419;SDS011;56612;52.030;113.524;2023-05-07T14:24:45;4.35;;;1.73;;
69419;SDS011;56612;52.030;113.524;2023-05-07T14:28:07;3.22;;;0.90;;
69419;SDS011;56612;52.030;113.524;2023-05-07T14:31:10;6.73;;;1.10;;
69419;SDS011;56612;52.030;113.524;2023-05-07T14:34:15;6.05;;;1.58;;
69419;SDS011;56612;52.030;113.524;2023-05-07T14:37:18;4.97;;;1.35;;
69419;SDS011;56612;52.030;113.524;2023-05-07T14:40:23;10.82;;;3.03;;
69419;SDS011;56612;52.030;113.524;2023-05-07T14:43:27;7.93;;;2.47;;
69419;SDS011;56612;52.030;113.524;2023-05-07T14:46:31;7.17;;;3.00;;
69419;SDS011;56612;52.030;113.524;2023-05-07T14:49:35;8.75;;;2.80;;
69419;SDS011;56612;52.030;113.524;2023-05-07T14:52:39;7.32;;;2.80;;
69419;SDS011;56612;52.030;113.524;2023-05-07T14:55:43;7.35;;;2.42;;
69419;SDS011;56612;52.030;113.524;2023-05-07T14:58:47;8.02;;;2.58;;
69419;SDS011;56612;52.030;113.524;2023-05-07T15:01:52;8.63;;;2.57;;
69419;SDS011;56612;52.030;113.524;2023-05-07T15:04:56;8.60;;;2.88;;
69419;SDS011;56612;52.030;113.524;2023-05-07T15:08:00;7.93;;;2.53;;
69419;SDS011;56612;52.030;113.524;2023-05-07T15:11:04;8.15;;;2.42;;
69419;SDS011;56612;52.030;113.524;2023-05-07T15:14:07;8.20;;;3.00;;
69419;SDS011;56612;52.030;113.524;2023-05-07T15:17:12;6.50;;;2.43;;
69419;SDS011;56612;52.030;113.524;2023-05-07T15:20:17;9.90;;;3.55;;
69419;SDS011;56612;52.030;113.524;2023-05-07T15:23:22;8.73;;;2.50;;
69419;SDS011;56612;52.030;113.524;2023-05-07T15:26:26;10.77;;;2.88;;
69419;SDS011;56612;52.030;113.524;2023-05-07T15:29:30;12.63;;;2.28;;
69419;SDS011;56612;52.030;113.524;2023-05-07T15:32:35;6.70;;;2.00;;
69419;SDS011;56612;52.030;113.524;2023-05-07T15:35:42;7.65;;;1.85;;
69419;SDS011;56612;52.030;113.524;2023-05-07T15:38:47;7.13;;;2.22;;
69419;SDS011;56612;52.030;113.524;2023-05-07T15:41:52;8.68;;;2.00;;
69419;SDS011;56612;52.030;113.524;2023-05-07T15:44:55;8.05;;;2.00;;
69419;SDS011;56612;52.030;113.524;2023-05-07T15:47:59;5.50;;;1.80;;
69419;SDS011;56612;52.030;113.524;2023-05-07T15:51:03;7.13;;;2.10;;
69419;SDS011;56612;52.030;113.524;2023-05-07T15:54:09;6.03;;;1.48;;
69419;SDS011;56612;52.030;113.524;2023-05-07T15:57:13;7.97;;;2.05;;
69419;SDS011;56612;52.030;113.524;2023-05-07T16:00:18;11.13;;;2.08;;
69419;SDS011;56612;52.030;113.524;2023-05-07T16:03:22;9.40;;;2.03;;
69419;SDS011;56612;52.030;113.524;2023-05-07T16:06:26;9.10;;;1.95;;
69419;SDS011;56612;52.030;113.524;2023-05-07T16:09:30;8.10;;;2.35;;
69419;SDS011;56612;52.030;113.524;2023-05-07T16:12:35;7.35;;;2.17;;
69419;SDS011;56612;52.030;113.524;2023-05-07T16:15:39;8.50;;;2.80;;
69419;SDS011;56612;52.030;113.524;2023-05-07T16:18:43;8.93;;;2.70;;
69419;SDS011;56612;52.030;113.524;2023-05-07T16:21:46;29.55;;;2.63;;
69419;SDS011;56612;52.030;113.524;2023-05-07T16:24:51;8.13;;;2.70;;
69419;SDS011;56612;52.030;113.524;2023-05-07T16:27:54;5.03;;;2.00;;
69419;SDS011;56612;52.030;113.524;2023-05-07T16:30:58;5.85;;;2.25;;
69419;SDS011;56612;52.030;113.524;2023-05-07T16:34:03;7.33;;;2.30;;
69419;SDS011;56612;52.030;113.524;2023-05-07T16:37:07;7.00;;;2.40;;
69419;SDS011;56612;52.030;113.524;2023-05-07T16:40:11;5.45;;;1.60;;
69419;SDS011;56612;52.030;113.524;2023-05-07T16:43:15;6.55;;;1.80;;
69419;SDS011;56612;52.030;113.524;2023-05-07T16:46:19;6.57;;;1.80;;
69419;SDS011;56612;52.030;113.524;2023-05-07T16:49:23;5.93;;;1.70;;
69419;SDS011;56612;52.030;113.524;2023-05-07T16:52:28;4.70;;;1.55;;
69419;SDS011;56612;52.030;113.524;2023-05-07T16:55:32;11.77;;;2.65;;
69419;SDS011;56612;52.030;113.524;2023-05-07T16:58:41;9.55;;;2.60;;
69419;SDS011;56612;52.030;113.524;2023-05-07T17:01:45;10.85;;;2.95;;
69419;SDS011;56612;52.030;113.524;2023-05-07T17:04:49;9.03;;;3.20;;
69419;SDS011;56612;52.030;113.524;2023-05-07T17:07:52;7.75;;;3.30;;
69419;SDS011;56612;52.030;113.524;2023-05-07T17:10:57;8.95;;;3.47;;
69419;SDS011;56612;52.030;113.524;2023-05-07T17:14:01;8.32;;;3.20;;
69419;SDS011;56612;52.030;113.524;2023-05-07T17:17:07;10.95;;;3.10;;
69419;SDS011;56612;52.030;113.524;2023-05-07T17:20:11;10.13;;;3.90;;
69419;SDS011;56612;52.030;113.524;2023-05-07T17:23:15;17.55;;;3.40;;
69419;SDS011;56612;52.030;113.524;2023-05-07T17:26:20;10.52;;;3.35;;
69419;SDS011;56612;52.030;113.524;2023-05-07T17:29:23;10.23;;;3.00;;
69419;SDS011;56612;52.030;113.524;2023-05-07T17:32:27;9.82;;;2.97;;
69419;SDS011;56612;52.030;113.524;2023-05-07T17:35:31;9.50;;;2.93;;
69419;SDS011;56612;52.030;113.524;2023-05-07T17:38:36;8.10;;;2.22;;
69419;SDS011;56612;52.030;113.524;2023-05-07T17:41:39;8.18;;;2.90;;
69419;SDS011;56612;52.030;113.524;2023-05-07T17:44:44;8.38;;;2.60;;
69419;SDS011;56612;52.030;113.524;2023-05-07T17:47:47;7.85;;;2.67;;
69419;SDS011;56612;52.030;113.524;2023-05-07T17:50:51;10.17;;;2.80;;
69419;SDS011;56612;52.030;113.524;2023-05-07T17:53:54;7.97;;;2.75;;
69419;SDS011;56612;52.030;113.524;2023-05-07T17:56:59;7.68;;;2.78;;
69419;SDS011;56612;52.030;113.524;2023-05-07T18:00:03;7.43;;;2.55;;
69419;SDS011;56612;52.030;113.524;2023-05-07T18:03:12;9.00;;;3.00;;
69419;SDS011;56612;52.030;113.524;2023-05-07T18:06:15;8.03;;;2.63;;